Time;durP1;ratioP1;P1;durP2;ratioP2;P2;SDS_P1;SDS_P2;PMS_P1;PMS_P2;Temp;Humidity;BMP_temperature;BMP_pressure;BME280_temperature;BME280_humidity;BME280_pressure;Samples;Min_cycle;Max_cycle;Signal;HPM_P1;HPM_P2
2022/08/12 00:43:14;;;;;;;8.82;5.70;;;;;;;;;;5102713;28;20051;-72
2022/08/12 00:48:25;;;;;;;10.23;6.88;;;;;;;;;;5077242;28;20082;-73
2022/08/12 00:50:54;;;;;;;9.18;6.13;;;;;;;;;;5104396;28;20052;-73
2022/08/12 00:53:20;;;;;;;8.32;6.15;;;;;;;;;;5084260;28;20044;-72
2022/08/12 00:55:46;;;;;;;11.02;5.97;;;;;;;;;;5100373;28;20086;-72
2022/08/12 00:58:16;;;;;;;13.48;6.20;;;;;;;;;;5113677;28;20074;-72
2022/08/12 01:00:43;;;;;;;7.85;5.88;;;;;;;;;;5108367;28;20040;-72
2022/08/12 01:03:10;;;;;;;9.70;5.70;;;;;;;;;;5104560;28;20051;-72
2022/08/12 01:13:52;;;;;;;11.75;6.57;;;;;;;;;;5119208;28;20083;-72
2022/08/12 01:16:21;;;;;;;9.27;6.38;;;;;;;;;;5115018;28;20079;-73
2022/08/12 01:18:48;;;;;;;9.45;6.20;;;;;;;;;;5119857;28;20062;-73
2022/08/12 01:21:16;;;;;;;7.45;5.90;;;;;;;;;;5109674;28;20097;-74
2022/08/12 01:23:48;;;;;;;7.78;5.90;;;;;;;;;;5109030;28;20107;-73
2022/08/12 01:26:19;;;;;;;8.18;5.93;;;;;;;;;;5114242;28;20039;-72
2022/08/12 01:28:47;;;;;;;9.63;6.47;;;;;;;;;;5100476;28;20047;-72
2022/08/12 01:31:14;;;;;;;9.10;6.50;;;;;;;;;;5105875;28;20054;-73
2022/08/12 01:33:44;;;;;;;9.77;7.32;;;;;;;;;;5105640;28;20048;-72
2022/08/12 01:36:11;;;;;;;9.00;6.68;;;;;;;;;;5118090;28;20050;-71
2022/08/12 01:38:37;;;;;;;10.68;6.80;;;;;;;;;;5114604;28;20564;-73
2022/08/12 01:41:04;;;;;;;10.23;6.82;;;;;;;;;;5108512;28;20040;-72
2022/08/12 01:43:30;;;;;;;8.52;6.38;;;;;;;;;;5100082;28;20055;-73
2022/08/12 01:46:06;;;;;;;10.15;7.20;;;;;;;;;;5104653;28;20160;-72
2022/08/12 01:48:37;;;;;;;10.48;6.72;;;;;;;;;;5116681;28;20436;-73
2022/08/12 01:51:18;;;;;;;9.73;6.80;;;;;;;;;;5087342;28;20043;-72
2022/08/12 01:53:57;;;;;;;8.68;7.00;;;;;;;;;;5096577;28;20097;-73
2022/08/12 01:56:25;;;;;;;15.25;7.70;;;;;;;;;;5101970;28;20056;-72
2022/08/12 02:01:39;;;;;;;11.65;7.40;;;;;;;;;;5089316;28;20043;-73
2022/08/12 02:13:02;;;;;;;10.02;7.03;;;;;;;;;;5108266;28;20076;-73
2022/08/12 02:15:45;;;;;;;11.57;8.10;;;;;;;;;;5113738;28;20051;-73
2022/08/12 02:18:27;;;;;;;13.20;7.90;;;;;;;;;;5112608;28;20044;-73
2022/08/12 02:21:01;;;;;;;11.75;6.88;;;;;;;;;;5090688;28;20503;-72
2022/08/12 02:23:27;;;;;;;11.93;7.85;;;;;;;;;;5109518;28;20502;-72
2022/08/12 02:25:55;;;;;;;9.50;7.43;;;;;;;;;;5109219;28;20044;-72
2022/08/12 02:28:21;;;;;;;11.13;8.13;;;;;;;;;;5107291;28;20550;-72
2022/08/12 02:30:48;;;;;;;12.73;8.40;;;;;;;;;;5103064;28;20101;-72
2022/08/12 02:33:15;;;;;;;10.65;8.23;;;;;;;;;;5116736;28;20050;-72
2022/08/12 02:35:41;;;;;;;10.25;8.65;;;;;;;;;;5100007;28;20078;-76
2022/08/12 02:38:11;;;;;;;12.20;8.40;;;;;;;;;;5101334;28;20069;-73
2022/08/12 02:40:38;;;;;;;11.20;8.55;;;;;;;;;;5115817;28;20485;-72
2022/08/12 02:43:21;;;;;;;12.05;9.10;;;;;;;;;;5065886;28;20040;-72
2022/08/12 02:45:59;;;;;;;11.43;8.50;;;;;;;;;;5106154;28;20039;-73
2022/08/12 02:48:26;;;;;;;16.38;9.32;;;;;;;;;;5111301;28;20492;-71
2022/08/12 02:50:53;;;;;;;12.10;9.65;;;;;;;;;;5122461;28;20042;-72
2022/08/12 02:53:19;;;;;;;12.93;9.23;;;;;;;;;;5115716;28;20040;-72
2022/08/12 02:55:45;;;;;;;12.73;9.68;;;;;;;;;;5068015;28;1085766;-73
2022/08/12 02:58:11;;;;;;;14.85;8.98;;;;;;;;;;5106529;28;20040;-73
2022/08/12 03:00:38;;;;;;;11.52;10.02;;;;;;;;;;5109698;28;20042;-73
2022/08/12 03:03:05;;;;;;;14.20;9.55;;;;;;;;;;5111915;28;20048;-72
2022/08/12 03:05:34;;;;;;;11.25;9.18;;;;;;;;;;5084412;28;20063;-73
2022/08/12 03:08:03;;;;;;;13.35;9.98;;;;;;;;;;5100120;28;20122;-73
2022/08/12 03:10:30;;;;;;;13.05;10.38;;;;;;;;;;5104846;28;20131;-72
2022/08/12 03:12:57;;;;;;;13.20;10.45;;;;;;;;;;5117079;28;20039;-72
2022/08/12 03:15:23;;;;;;;16.40;11.30;;;;;;;;;;5107850;28;20032;-73
2022/08/12 03:17:53;;;;;;;13.30;10.68;;;;;;;;;;5108873;28;20043;-73
2022/08/12 03:20:21;;;;;;;13.63;11.00;;;;;;;;;;5105746;28;20114;-73
2022/08/12 03:22:47;;;;;;;12.02;10.30;;;;;;;;;;5094560;28;20111;-73
2022/08/12 03:25:15;;;;;;;13.38;10.70;;;;;;;;;;5105416;28;20059;-73
2022/08/12 03:27:48;;;;;;;11.95;9.57;;;;;;;;;;5087834;28;20044;-72
2022/08/12 03:30:15;;;;;;;13.18;9.98;;;;;;;;;;5101039;28;20048;-73
2022/08/12 03:32:44;;;;;;;11.75;10.13;;;;;;;;;;5120100;28;20067;-72
2022/08/12 03:35:11;;;;;;;12.25;9.63;;;;;;;;;;5115037;28;20101;-72
2022/08/12 03:37:39;;;;;;;13.10;10.57;;;;;;;;;;5112885;28;20040;-72
2022/08/12 03:40:08;;;;;;;14.48;10.68;;;;;;;;;;5086960;28;20048;-73
2022/08/12 03:42:34;;;;;;;11.50;9.85;;;;;;;;;;5111163;28;20477;-73
2022/08/12 04:01:56;;;;;;;14.93;10.23;;;;;;;;;;5104927;28;20074;-72
2022/08/12 04:04:32;;;;;;;14.43;11.40;;;;;;;;;;5117140;28;20051;-73
2022/08/12 04:06:58;;;;;;;13.60;10.07;;;;;;;;;;5109078;28;20305;-72
2022/08/12 04:09:25;;;;;;;13.38;10.27;;;;;;;;;;5104993;28;20032;-72
2022/08/12 04:14:36;;;;;;;13.50;10.52;;;;;;;;;;5106044;28;20047;-73
2022/08/12 04:17:03;;;;;;;15.32;10.77;;;;;;;;;;5118267;28;20044;-72
2022/08/12 04:19:29;;;;;;;12.50;10.82;;;;;;;;;;5077488;28;20101;-73
2022/08/12 04:21:56;;;;;;;14.13;10.50;;;;;;;;;;5084588;28;20051;-72
2022/08/12 04:24:25;;;;;;;14.15;10.38;;;;;;;;;;5107471;28;20127;-73
2022/08/12 04:26:51;;;;;;;12.23;10.65;;;;;;;;;;5105600;28;20050;-73
2022/08/12 04:29:21;;;;;;;13.48;10.40;;;;;;;;;;5113122;28;20159;-72
2022/08/12 04:31:48;;;;;;;12.32;10.30;;;;;;;;;;5121970;28;20047;-72
2022/08/12 04:34:15;;;;;;;12.95;10.70;;;;;;;;;;5090748;28;20047;-73
2022/08/12 04:36:41;;;;;;;14.50;10.27;;;;;;;;;;5101525;28;20058;-72
2022/08/12 04:39:08;;;;;;;13.20;9.73;;;;;;;;;;5107789;28;20040;-72
2022/08/12 04:41:36;;;;;;;15.23;9.98;;;;;;;;;;5112552;28;20039;-73
2022/08/12 04:44:02;;;;;;;12.30;9.77;;;;;;;;;;5120840;28;20082;-72
2022/08/12 04:46:28;;;;;;;12.18;9.57;;;;;;;;;;5107780;28;20069;-73
2022/08/12 04:48:54;;;;;;;13.27;9.02;;;;;;;;;;5101548;28;20079;-72
2022/08/12 04:51:21;;;;;;;10.43;9.07;;;;;;;;;;5106798;28;20069;-72
2022/08/12 04:53:47;;;;;;;13.05;8.65;;;;;;;;;;5108645;28;20080;-71
2022/08/12 04:56:14;;;;;;;13.15;9.50;;;;;;;;;;5108323;28;20078;-72
2022/08/12 04:58:40;;;;;;;11.02;9.30;;;;;;;;;;5099420;28;20040;-72
2022/08/12 05:01:07;;;;;;;11.15;9.32;;;;;;;;;;5101241;28;20051;-73
2022/08/12 05:03:36;;;;;;;12.02;9.02;;;;;;;;;;5104519;28;20051;-72
2022/08/12 05:06:03;;;;;;;12.63;10.13;;;;;;;;;;5112142;28;20058;-72
2022/08/12 05:08:29;;;;;;;13.68;8.93;;;;;;;;;;5092945;28;20048;-73
2022/08/12 05:10:56;;;;;;;12.35;9.60;;;;;;;;;;5108222;28;20047;-72
2022/08/12 05:13:23;;;;;;;13.43;9.32;;;;;;;;;;5113831;28;20048;-72
2022/08/12 05:15:49;;;;;;;13.55;11.57;;;;;;;;;;5120925;28;20239;-72
2022/08/12 05:18:16;;;;;;;12.93;9.68;;;;;;;;;;5104975;28;20059;-73
2022/08/12 05:20:42;;;;;;;13.32;10.50;;;;;;;;;;5112785;28;20091;-72
2022/08/12 05:23:13;;;;;;;11.73;9.65;;;;;;;;;;5116173;28;20066;-72
2022/08/12 05:25:39;;;;;;;16.75;9.77;;;;;;;;;;5104122;28;20052;-72
2022/08/12 05:28:05;;;;;;;13.20;9.43;;;;;;;;;;5122614;28;20500;-72
2022/08/12 05:30:32;;;;;;;13.45;9.18;;;;;;;;;;5112582;28;20054;-73
2022/08/12 05:32:58;;;;;;;12.63;8.88;;;;;;;;;;5092873;28;20059;-72
2022/08/12 05:35:24;;;;;;;12.75;8.90;;;;;;;;;;5118290;28;20040;-73
2022/08/12 05:38:54;;;;;;;12.68;8.20;;;;;;;;;;5107969;28;20060;-72
2022/08/12 05:40:40;;;;;;;9.18;7.53;;;;;;;;;;5113061;28;20059;-72
2022/08/12 05:43:07;;;;;;;10.93;6.78;;;;;;;;;;5089377;28;20062;-72
2022/08/12 05:45:33;;;;;;;10.82;6.55;;;;;;;;;;5110312;28;20044;-73
2022/08/12 05:48:00;;;;;;;9.27;6.70;;;;;;;;;;5126573;28;20062;-73
2022/08/12 05:50:26;;;;;;;10.75;7.45;;;;;;;;;;5105894;28;20048;-73
2022/08/12 05:52:52;;;;;;;9.70;6.40;;;;;;;;;;5112434;28;20100;-71
2022/08/12 05:55:19;;;;;;;9.52;6.47;;;;;;;;;;5109577;28;20047;-73
2022/08/12 05:57:48;;;;;;;10.18;7.40;;;;;;;;;;5107841;28;20047;-72
2022/08/12 06:00:15;;;;;;;10.02;7.18;;;;;;;;;;5107229;28;20043;-72
2022/08/12 06:02:42;;;;;;;7.80;5.85;;;;;;;;;;5127521;28;20044;-73
2022/08/12 06:05:09;;;;;;;9.43;6.35;;;;;;;;;;5110120;28;20048;-71
2022/08/12 06:07:40;;;;;;;12.48;6.82;;;;;;;;;;5070437;28;20070;-73
2022/08/12 06:10:06;;;;;;;10.15;5.72;;;;;;;;;;5102500;28;20299;-72
2022/08/12 06:12:32;;;;;;;10.05;6.07;;;;;;;;;;5111943;28;20173;-72
2022/08/12 06:14:58;;;;;;;9.25;6.28;;;;;;;;;;5102988;28;20066;-73
2022/08/12 06:17:25;;;;;;;9.45;6.05;;;;;;;;;;5089626;28;20055;-73
2022/08/12 06:19:51;;;;;;;10.25;6.00;;;;;;;;;;5114470;28;20093;-73
2022/08/12 06:22:17;;;;;;;9.73;5.75;;;;;;;;;;5097575;28;20075;-72
2022/08/12 06:24:43;;;;;;;10.60;5.70;;;;;;;;;;5109769;28;20069;-72
2022/08/12 06:27:09;;;;;;;9.98;6.13;;;;;;;;;;5113504;28;20048;-73
2022/08/12 06:29:37;;;;;;;9.07;5.80;;;;;;;;;;5096280;28;20059;-73
2022/08/12 06:32:03;;;;;;;7.85;5.68;;;;;;;;;;5108964;28;20044;-73
2022/08/12 06:34:30;;;;;;;11.55;5.85;;;;;;;;;;5110947;28;20062;-73
2022/08/12 06:36:56;;;;;;;8.85;5.70;;;;;;;;;;5117233;28;20100;-73
2022/08/12 06:39:22;;;;;;;9.68;5.80;;;;;;;;;;5116733;28;20043;-73
2022/08/12 06:44:33;;;;;;;8.52;4.53;;;;;;;;;;5110084;28;20375;-73
2022/08/12 06:47:00;;;;;;;7.60;4.70;;;;;;;;;;5106237;28;20051;-72
2022/08/12 06:49:27;;;;;;;11.25;5.03;;;;;;;;;;5111122;28;20075;-73
2022/08/12 06:51:54;;;;;;;7.05;4.68;;;;;;;;;;5108830;28;20044;-73
2022/08/12 06:54:20;;;;;;;9.98;4.80;;;;;;;;;;5115364;28;20119;-72
2022/08/12 06:56:46;;;;;;;11.25;4.60;;;;;;;;;;5118269;28;20048;-73
2022/08/12 06:59:14;;;;;;;11.20;4.68;;;;;;;;;;5112060;28;20048;-72
2022/08/12 07:01:40;;;;;;;13.27;4.25;;;;;;;;;;5119631;28;20094;-79
2022/08/12 07:04:06;;;;;;;8.02;4.03;;;;;;;;;;5119982;28;20036;-74
2022/08/12 07:06:32;;;;;;;7.60;4.20;;;;;;;;;;5125564;28;20097;-74
2022/08/12 07:08:58;;;;;;;7.25;4.18;;;;;;;;;;5118153;28;20047;-75
2022/08/12 07:11:24;;;;;;;12.98;5.03;;;;;;;;;;5130374;27;20080;-73
2022/08/12 07:13:52;;;;;;;11.18;4.50;;;;;;;;;;5121353;28;20104;-73
2022/08/12 07:16:19;;;;;;;11.35;4.13;;;;;;;;;;5117587;28;20067;-73
2022/08/12 07:18:54;;;;;;;11.20;4.03;;;;;;;;;;5085404;28;20047;-72
2022/08/12 07:21:20;;;;;;;11.48;3.67;;;;;;;;;;5107238;28;20059;-72
2022/08/12 07:23:46;;;;;;;7.47;3.78;;;;;;;;;;5123567;28;20047;-72
2022/08/12 07:26:18;;;;;;;9.05;3.80;;;;;;;;;;5124092;28;20047;-72
2022/08/12 07:28:46;;;;;;;82.95;12.75;;;;;;;;;;5120470;28;20051;-73
2022/08/12 07:31:13;;;;;;;12.75;3.72;;;;;;;;;;5102439;28;20059;-72
2022/08/12 07:33:41;;;;;;;9.80;3.80;;;;;;;;;;5118037;28;20054;-72
2022/08/12 07:36:12;;;;;;;9.25;3.60;;;;;;;;;;5101751;28;20058;-72
2022/08/12 07:38:44;;;;;;;9.20;3.60;;;;;;;;;;5100031;28;20048;-72
2022/08/12 07:41:16;;;;;;;7.18;3.75;;;;;;;;;;5082674;28;20067;-73
2022/08/12 07:43:43;;;;;;;9.20;3.72;;;;;;;;;;5101892;28;20043;-73
2022/08/12 07:46:11;;;;;;;10.02;3.28;;;;;;;;;;5101674;28;20051;-73
2022/08/12 07:48:42;;;;;;;10.00;3.53;;;;;;;;;;5098365;28;20036;-73
2022/08/12 07:51:09;;;;;;;8.85;3.50;;;;;;;;;;5099799;28;20032;-73
2022/08/12 07:53:36;;;;;;;8.45;3.60;;;;;;;;;;5099927;28;20051;-73
2022/08/12 07:56:03;;;;;;;7.38;3.20;;;;;;;;;;5108417;28;20048;-73
2022/08/12 07:58:29;;;;;;;6.97;3.70;;;;;;;;;;5105108;28;20481;-72
2022/08/12 08:01:04;;;;;;;9.00;3.97;;;;;;;;;;5098196;28;20405;-73
2022/08/12 08:03:30;;;;;;;9.68;3.92;;;;;;;;;;5109105;28;20044;-72
2022/08/12 08:05:57;;;;;;;10.38;3.53;;;;;;;;;;5117965;28;20051;-72
2022/08/12 08:08:24;;;;;;;8.02;3.50;;;;;;;;;;5117647;28;20131;-73
2022/08/12 08:10:51;;;;;;;9.77;3.38;;;;;;;;;;5105937;28;20102;-73
2022/08/12 08:13:19;;;;;;;10.00;3.30;;;;;;;;;;5097835;28;20090;-73
2022/08/12 08:15:45;;;;;;;8.77;3.78;;;;;;;;;;5096620;28;20047;-73
2022/08/12 08:18:12;;;;;;;10.57;3.90;;;;;;;;;;5102587;28;20075;-73
2022/08/12 08:20:40;;;;;;;10.52;3.28;;;;;;;;;;5098011;28;20146;-73
2022/08/12 08:23:08;;;;;;;64.28;11.45;;;;;;;;;;5096986;28;20095;-72
2022/08/12 08:25:34;;;;;;;11.18;3.88;;;;;;;;;;5081866;28;20051;-71
2022/08/12 08:28:09;;;;;;;11.00;3.58;;;;;;;;;;5097980;28;20354;-72
2022/08/12 08:30:37;;;;;;;8.80;3.38;;;;;;;;;;5117168;28;20354;-72
2022/08/12 08:33:04;;;;;;;8.00;3.33;;;;;;;;;;5092589;28;20071;-72
2022/08/12 08:35:30;;;;;;;8.50;3.78;;;;;;;;;;5113380;28;20149;-72
2022/08/12 08:38:07;;;;;;;8.25;3.45;;;;;;;;;;5100983;28;20048;-73
2022/08/12 08:43:19;;;;;;;11.15;3.30;;;;;;;;;;5112316;28;20120;-72
2022/08/12 08:45:47;;;;;;;8.65;3.22;;;;;;;;;;5097020;28;20116;-72
2022/08/12 08:48:13;;;;;;;13.23;3.33;;;;;;;;;;5093792;28;20051;-72
2022/08/12 08:50:40;;;;;;;9.10;3.20;;;;;;;;;;5076035;28;20040;-74
2022/08/12 08:53:07;;;;;;;12.05;3.30;;;;;;;;;;5094801;28;20048;-72
2022/08/12 08:55:34;;;;;;;11.38;3.60;;;;;;;;;;5109667;28;20067;-72
2022/08/12 08:58:00;;;;;;;9.27;3.65;;;;;;;;;;5094817;28;20052;-72
2022/08/12 09:00:28;;;;;;;7.85;3.10;;;;;;;;;;5105974;28;20076;-71
2022/08/12 09:02:54;;;;;;;9.25;3.13;;;;;;;;;;5095166;28;20070;-72
2022/08/12 09:05:20;;;;;;;11.90;3.25;;;;;;;;;;5113668;28;20044;-72
2022/08/12 09:07:48;;;;;;;15.43;3.25;;;;;;;;;;5117789;28;20026;-73
2022/08/12 09:10:16;;;;;;;9.88;3.10;;;;;;;;;;5080666;28;20036;-72
2022/08/12 09:15:29;;;;;;;11.25;3.38;;;;;;;;;;5078543;28;20056;-71
2022/08/12 09:17:55;;;;;;;8.40;3.03;;;;;;;;;;5095597;28;20055;-71
2022/08/12 09:20:23;;;;;;;8.02;3.10;;;;;;;;;;5078591;28;20053;-71
2022/08/12 09:22:49;;;;;;;8.77;3.15;;;;;;;;;;5108963;28;20068;-71
2022/08/12 09:25:16;;;;;;;7.38;2.70;;;;;;;;;;5106543;28;20058;-71
2022/08/12 09:27:42;;;;;;;7.45;3.40;;;;;;;;;;5101593;28;20055;-70
2022/08/12 09:30:14;;;;;;;8.38;3.15;;;;;;;;;;5098405;28;20051;-70
2022/08/12 09:32:41;;;;;;;7.15;3.20;;;;;;;;;;5103588;28;20047;-71
2022/08/12 09:35:08;;;;;;;9.88;3.00;;;;;;;;;;5103552;28;20551;-73
2022/08/12 09:37:34;;;;;;;7.03;2.83;;;;;;;;;;5104571;28;20461;-72
2022/08/12 09:40:00;;;;;;;6.45;2.67;;;;;;;;;;5118722;28;20051;-73
2022/08/12 09:45:21;;;;;;;6.47;2.70;;;;;;;;;;5114343;28;20043;-71
2022/08/12 09:47:47;;;;;;;6.78;2.60;;;;;;;;;;5111645;28;20043;-72
2022/08/12 09:50:15;;;;;;;6.63;2.80;;;;;;;;;;5108617;28;20036;-72
2022/08/12 09:52:41;;;;;;;6.07;2.65;;;;;;;;;;5112353;28;20058;-73
2022/08/12 09:55:11;;;;;;;6.32;2.67;;;;;;;;;;5106957;28;20059;-71
2022/08/12 09:57:37;;;;;;;8.40;2.80;;;;;;;;;;5119145;28;20044;-72
2022/08/12 10:00:04;;;;;;;6.45;2.70;;;;;;;;;;5121374;28;20409;-72
2022/08/12 10:02:34;;;;;;;6.40;2.40;;;;;;;;;;5123313;28;20058;-73
2022/08/12 10:05:01;;;;;;;6.55;2.58;;;;;;;;;;5113587;28;20509;-72
2022/08/12 10:07:29;;;;;;;5.93;2.75;;;;;;;;;;5108672;28;20549;-72
2022/08/12 10:09:55;;;;;;;8.30;2.55;;;;;;;;;;5105429;28;20107;-73
2022/08/12 10:15:06;;;;;;;7.85;2.50;;;;;;;;;;5100380;28;20048;-72
2022/08/12 10:17:32;;;;;;;8.32;2.80;;;;;;;;;;5099112;28;20039;-73
2022/08/12 10:19:58;;;;;;;7.65;2.40;;;;;;;;;;5100366;28;20216;-72
2022/08/12 10:22:24;;;;;;;12.50;2.60;;;;;;;;;;5101065;28;20220;-73
2022/08/12 10:30:20;;;;;;;6.30;2.60;;;;;;;;;;5101368;28;20055;-72
2022/08/12 10:33:04;;;;;;;6.93;2.33;;;;;;;;;;5107052;28;20051;-72
2022/08/12 10:35:31;;;;;;;7.75;2.50;;;;;;;;;;5086071;28;20048;-73
2022/08/12 10:38:01;;;;;;;7.75;2.55;;;;;;;;;;5105435;28;20048;-72
2022/08/12 10:40:29;;;;;;;5.93;2.28;;;;;;;;;;5104607;28;20129;-73
2022/08/12 10:45:41;;;;;;;9.52;2.40;;;;;;;;;;5106368;28;20052;-72
2022/08/12 10:48:07;;;;;;;8.02;2.40;;;;;;;;;;5094280;28;20047;-73
2022/08/12 10:50:34;;;;;;;5.90;2.25;;;;;;;;;;5105048;28;20100;-72
2022/08/12 10:53:03;;;;;;;5.60;2.22;;;;;;;;;;5123451;28;20104;-73
2022/08/12 10:55:29;;;;;;;6.40;2.15;;;;;;;;;;5121606;28;20063;-72
2022/08/12 10:57:55;;;;;;;7.40;2.30;;;;;;;;;;5122801;28;20132;-71
2022/08/12 11:00:21;;;;;;;8.60;2.47;;;;;;;;;;5086568;28;20044;-71
2022/08/12 11:02:53;;;;;;;9.57;2.40;;;;;;;;;;5105005;28;20032;-71
2022/08/12 11:05:20;;;;;;;7.65;2.63;;;;;;;;;;5100798;28;20044;-72
2022/08/12 11:07:49;;;;;;;7.70;2.30;;;;;;;;;;5102150;28;20040;-72
2022/08/12 11:10:16;;;;;;;7.68;2.40;;;;;;;;;;5102507;28;20048;-72
2022/08/12 11:12:46;;;;;;;7.07;2.53;;;;;;;;;;5102795;28;20040;-73
2022/08/12 11:15:12;;;;;;;;;;;;;;;;;;5099634;28;20044;-72
2022/08/12 11:17:39;;;;;;;9.35;2.47;;;;;;;;;;5103362;28;20388;-73
2022/08/12 11:20:06;;;;;;;7.32;2.25;;;;;;;;;;5080607;28;20201;-71
2022/08/12 11:22:32;;;;;;;8.55;2.30;;;;;;;;;;5099669;28;20510;-73
2022/08/12 11:24:58;;;;;;;6.97;2.30;;;;;;;;;;5099737;28;20100;-72
2022/08/12 11:27:24;;;;;;;8.13;2.17;;;;;;;;;;5105185;28;20043;-73
2022/08/12 11:29:50;;;;;;;6.20;2.38;;;;;;;;;;5105065;28;20459;-72
2022/08/12 11:32:16;;;;;;;7.22;2.35;;;;;;;;;;5119214;28;20054;-72
2022/08/12 11:34:42;;;;;;;10.15;2.42;;;;;;;;;;5102162;28;20059;-73
2022/08/12 11:37:09;;;;;;;5.88;2.33;;;;;;;;;;5101734;28;20410;-73
2022/08/12 11:39:35;;;;;;;6.88;2.30;;;;;;;;;;5102702;28;20083;-72
2022/08/12 11:42:01;;;;;;;8.82;2.53;;;;;;;;;;5106487;28;20044;-72
2022/08/12 11:44:27;;;;;;;6.95;2.47;;;;;;;;;;5120664;28;20397;-72
2022/08/12 11:46:53;;;;;;;8.32;2.60;;;;;;;;;;5105819;28;20097;-71
2022/08/12 11:49:23;;;;;;;8.40;2.60;;;;;;;;;;5102872;28;20043;-72
2022/08/12 11:51:49;;;;;;;6.97;2.42;;;;;;;;;;5083666;28;20048;-74
2022/08/12 11:54:15;;;;;;;10.48;2.35;;;;;;;;;;5101271;28;20083;-73
2022/08/12 11:56:42;;;;;;;9.30;2.47;;;;;;;;;;5102809;28;20055;-73
2022/08/12 11:59:08;;;;;;;12.05;2.75;;;;;;;;;;5105283;28;20051;-73
2022/08/12 12:01:34;;;;;;;9.63;2.40;;;;;;;;;;5103494;28;20051;-73
2022/08/12 12:04:00;;;;;;;5.40;2.20;;;;;;;;;;5104551;28;20065;-73
2022/08/12 12:06:26;;;;;;;9.18;2.50;;;;;;;;;;5104191;28;20436;-73
2022/08/12 12:08:53;;;;;;;5.03;2.70;;;;;;;;;;5094336;28;20051;-72
2022/08/12 12:11:19;;;;;;;7.22;2.25;;;;;;;;;;5101174;28;20089;-74
2022/08/12 12:13:45;;;;;;;5.63;2.30;;;;;;;;;;5097691;28;20087;-72
2022/08/12 12:16:11;;;;;;;7.95;2.60;;;;;;;;;;5106755;28;20047;-72
2022/08/12 12:18:38;;;;;;;8.18;2.40;;;;;;;;;;5117633;28;20140;-72
2022/08/12 12:21:05;;;;;;;9.70;2.45;;;;;;;;;;5099940;28;20051;-73
2022/08/12 12:23:33;;;;;;;7.10;2.20;;;;;;;;;;5102305;28;20145;-73
2022/08/12 12:25:59;;;;;;;9.27;2.40;;;;;;;;;;5104239;28;20059;-72
2022/08/12 12:28:25;;;;;;;6.20;2.20;;;;;;;;;;5106856;28;20126;-74
2022/08/12 12:30:51;;;;;;;8.77;2.67;;;;;;;;;;5084323;28;20104;-73
2022/08/12 12:33:19;;;;;;;8.70;2.53;;;;;;;;;;5069515;28;20048;-72
2022/08/12 12:35:45;;;;;;;11.55;2.45;;;;;;;;;;5102829;28;20074;-73
2022/08/12 12:38:12;;;;;;;8.27;2.30;;;;;;;;;;5100255;28;20105;-74
2022/08/12 12:40:39;;;;;;;5.63;2.40;;;;;;;;;;5121426;28;20046;-73
2022/08/12 12:43:05;;;;;;;9.02;2.40;;;;;;;;;;5104100;28;20063;-73
2022/08/12 12:45:32;;;;;;;11.00;3.08;;;;;;;;;;5120920;28;20397;-73
2022/08/12 12:47:59;;;;;;;6.68;2.30;;;;;;;;;;5115268;28;20044;-73
2022/08/12 12:50:29;;;;;;;6.43;2.70;;;;;;;;;;5096484;28;20040;-73
2022/08/12 12:52:55;;;;;;;8.93;2.58;;;;;;;;;;5109040;28;20055;-74
2022/08/12 12:55:22;;;;;;;8.27;2.63;;;;;;;;;;5069396;28;20055;-73
2022/08/12 12:57:49;;;;;;;6.28;2.30;;;;;;;;;;5110163;28;20067;-73
2022/08/12 13:00:16;;;;;;;6.18;2.63;;;;;;;;;;5101375;28;20451;-73
2022/08/12 13:02:51;;;;;;;6.30;2.88;;;;;;;;;;5108686;28;20074;-73
2022/08/12 13:05:28;;;;;;;5.65;2.30;;;;;;;;;;5123136;28;20030;-74
2022/08/12 13:07:55;;;;;;;7.60;2.70;;;;;;;;;;5115499;28;20754;-73
2022/08/12 13:10:22;;;;;;;7.60;2.47;;;;;;;;;;5122353;28;20047;-73
2022/08/12 13:12:49;;;;;;;5.78;2.17;;;;;;;;;;5117096;28;20044;-73
2022/08/12 13:15:15;;;;;;;4.90;2.30;;;;;;;;;;5110287;28;20044;-73
2022/08/12 13:18:02;;;;;;;8.07;2.50;;;;;;;;;;5106231;28;20535;-73
2022/08/12 13:20:30;;;;;;;11.80;2.80;;;;;;;;;;5099139;28;20051;-73
2022/08/12 13:22:56;;;;;;;8.13;2.65;;;;;;;;;;5106236;28;20120;-74
2022/08/12 13:25:23;;;;;;;6.43;2.30;;;;;;;;;;5102207;28;20036;-73
2022/08/12 13:27:50;;;;;;;6.38;2.75;;;;;;;;;;5119432;28;20126;-73
2022/08/12 13:30:19;;;;;;;4.95;2.47;;;;;;;;;;5115544;28;20036;-72
2022/08/12 13:32:49;;;;;;;7.22;2.58;;;;;;;;;;5124595;28;20032;-73
2022/08/12 13:35:15;;;;;;;9.98;3.03;;;;;;;;;;5104532;28;20051;-72
2022/08/12 13:37:42;;;;;;;7.18;2.72;;;;;;;;;;5105470;28;20040;-72
2022/08/12 13:40:09;;;;;;;7.90;2.50;;;;;;;;;;5106144;28;20114;-73
2022/08/12 13:42:38;;;;;;;6.85;2.63;;;;;;;;;;5104460;28;20040;-73
2022/08/12 13:45:05;;;;;;;8.18;2.72;;;;;;;;;;5105106;28;20400;-72
2022/08/12 13:47:54;;;;;;;9.13;2.63;;;;;;;;;;5105809;28;20040;-73
2022/08/12 13:50:21;;;;;;;8.13;2.60;;;;;;;;;;5107783;28;20029;-72
2022/08/12 13:52:47;;;;;;;6.75;2.70;;;;;;;;;;5105967;28;20516;-73
2022/08/12 13:55:13;;;;;;;11.20;2.80;;;;;;;;;;5108138;28;20112;-72
2022/08/12 13:57:42;;;;;;;6.50;2.80;;;;;;;;;;5105512;28;20059;-73
2022/08/12 14:00:10;;;;;;;7.55;2.80;;;;;;;;;;5116642;28;20032;-73
2022/08/12 14:02:37;;;;;;;9.30;2.50;;;;;;;;;;5122854;28;20054;-73
2022/08/12 14:05:04;;;;;;;7.63;2.60;;;;;;;;;;5103703;28;20032;-75
2022/08/12 14:07:32;;;;;;;8.52;2.80;;;;;;;;;;5102110;28;20040;-73
2022/08/12 14:12:45;;;;;;;6.70;2.90;;;;;;;;;;5110517;28;20062;-73
2022/08/12 14:15:11;;;;;;;7.45;2.65;;;;;;;;;;5101050;28;20048;-73
2022/08/12 14:17:37;;;;;;;11.43;2.70;;;;;;;;;;5101179;28;20048;-73
2022/08/12 14:20:12;;;;;;;5.93;2.70;;;;;;;;;;5102155;28;20056;-73
2022/08/12 14:22:38;;;;;;;7.60;2.67;;;;;;;;;;5102896;28;20036;-73
2022/08/12 14:25:04;;;;;;;6.60;2.72;;;;;;;;;;5101258;28;20101;-73
2022/08/12 14:27:30;;;;;;;10.10;2.55;;;;;;;;;;5120097;28;20082;-74
2022/08/12 14:29:57;;;;;;;8.45;2.67;;;;;;;;;;5121266;28;20176;-73
2022/08/12 14:32:23;;;;;;;7.00;2.80;;;;;;;;;;5109239;28;20136;-73
2022/08/12 14:34:50;;;;;;;7.10;2.95;;;;;;;;;;5102321;28;20056;-73
2022/08/12 14:37:21;;;;;;;8.77;2.95;;;;;;;;;;5080567;28;20052;-73
2022/08/12 14:39:47;;;;;;;8.38;2.78;;;;;;;;;;5101216;28;20056;-73
2022/08/12 14:42:13;;;;;;;7.88;2.60;;;;;;;;;;5100919;28;20055;-73
2022/08/12 14:44:39;;;;;;;6.95;2.70;;;;;;;;;;5122839;28;20111;-72
2022/08/12 14:47:07;;;;;;;7.07;2.45;;;;;;;;;;5122956;28;20047;-72
2022/08/12 14:49:33;;;;;;;9.90;2.88;;;;;;;;;;5123636;28;20051;-73
2022/08/12 14:51:59;;;;;;;9.27;2.65;;;;;;;;;;5104019;28;20044;-73
2022/08/12 14:54:25;;;;;;;9.95;2.78;;;;;;;;;;5113251;28;20054;-73
2022/08/12 14:56:52;;;;;;;9.40;2.90;;;;;;;;;;5116066;28;20082;-73
2022/08/12 15:02:03;;;;;;;9.05;2.60;;;;;;;;;;5100706;28;20119;-73
2022/08/12 15:04:29;;;;;;;10.45;2.95;;;;;;;;;;5098891;28;20032;-73
2022/08/12 15:06:55;;;;;;;6.07;2.80;;;;;;;;;;5103967;28;20039;-73
2022/08/12 15:09:22;;;;;;;9.50;3.00;;;;;;;;;;5113383;28;20043;-74
2022/08/12 15:11:48;;;;;;;7.18;2.72;;;;;;;;;;5105891;28;20046;-74
2022/08/12 15:14:14;;;;;;;5.35;2.50;;;;;;;;;;5116148;28;20071;-76
2022/08/12 15:16:40;;;;;;;6.35;2.70;;;;;;;;;;5126422;27;20028;-74
2022/08/12 15:19:07;;;;;;;7.63;2.55;;;;;;;;;;5100388;28;20474;-77
2022/08/12 15:21:36;;;;;;;6.32;2.60;;;;;;;;;;5107765;28;20294;-73
2022/08/12 15:24:03;;;;;;;8.93;2.75;;;;;;;;;;5101813;28;20096;-73
2022/08/12 15:26:34;;;;;;;8.27;3.33;;;;;;;;;;5120390;28;20044;-72
2022/08/12 15:29:00;;;;;;;8.25;2.60;;;;;;;;;;5112656;28;20082;-72
2022/08/12 15:31:26;;;;;;;5.53;2.40;;;;;;;;;;5116245;28;20043;-72
2022/08/12 15:33:54;;;;;;;12.80;2.85;;;;;;;;;;5099854;28;20039;-72
2022/08/12 15:36:20;;;;;;;6.95;2.42;;;;;;;;;;5116715;28;20062;-72
2022/08/12 15:38:46;;;;;;;5.80;2.58;;;;;;;;;;5118750;28;20078;-72
2022/08/12 15:41:13;;;;;;;7.32;2.70;;;;;;;;;;5091292;28;20126;-72
2022/08/12 15:43:39;;;;;;;7.78;2.65;;;;;;;;;;5096292;28;20082;-72
2022/08/12 15:46:06;;;;;;;6.78;2.28;;;;;;;;;;5087440;28;20119;-72
2022/08/12 15:48:33;;;;;;;6.18;2.40;;;;;;;;;;5101220;28;20078;-73
2022/08/12 15:50:59;;;;;;;6.78;2.38;;;;;;;;;;5086389;28;20077;-74
2022/08/12 15:56:11;;;;;;;10.35;2.75;;;;;;;;;;5118787;27;20103;-73
2022/08/12 15:58:40;;;;;;;5.85;2.60;;;;;;;;;;5128059;27;20047;-75
2022/08/12 16:01:10;;;;;;;5.53;2.70;;;;;;;;;;5123318;28;20073;-73
2022/08/12 16:03:36;;;;;;;8.43;2.60;;;;;;;;;;5104428;28;20040;-73
2022/08/12 16:06:03;;;;;;;8.95;2.90;;;;;;;;;;5108411;28;20091;-73
2022/08/12 16:08:34;;;;;;;6.80;2.47;;;;;;;;;;5105364;28;20120;-73
2022/08/12 16:11:00;;;;;;;7.75;2.50;;;;;;;;;;5098551;28;20054;-73
2022/08/12 16:13:26;;;;;;;7.97;2.65;;;;;;;;;;5107509;28;20036;-73
2022/08/12 16:15:52;;;;;;;9.05;2.42;;;;;;;;;;5108696;28;20052;-73
2022/08/12 16:18:18;;;;;;;5.47;2.35;;;;;;;;;;5108475;28;20119;-72
2022/08/12 16:20:48;;;;;;;10.55;2.40;;;;;;;;;;5111126;28;20047;-73
2022/08/12 16:23:15;;;;;;;9.80;2.45;;;;;;;;;;5107188;28;20042;-73
2022/08/12 16:25:41;;;;;;;7.13;2.53;;;;;;;;;;5108786;28;20040;-73
2022/08/12 16:28:08;;;;;;;7.72;2.50;;;;;;;;;;5096830;28;20048;-73
2022/08/12 16:30:35;;;;;;;13.93;2.58;;;;;;;;;;5109173;28;20246;-73
2022/08/12 16:33:07;;;;;;;8.13;2.80;;;;;;;;;;5104050;28;20051;-73
2022/08/12 16:35:34;;;;;;;9.43;2.50;;;;;;;;;;5103968;28;20063;-72